Time;durP1;ratioP1;P1;durP2;ratioP2;P2;SDS_P1;SDS_P2;PMS_P1;PMS_P2;Temp;Humidity;BMP_temperature;BMP_pressure;BME280_temperature;BME280_humidity;BME280_pressure;Samples;Min_cycle;Max_cycle;Signal;HPM_P1;HPM_P2
2023/07/29 00:00:37;;;;;;;4.40;1.53;;;19.20;99.90;;;;;;4827234;29;20425;-89
2023/07/29 00:03:03;;;;;;;3.30;1.30;;;19.20;99.90;;;;;;4810962;29;20197;-89
2023/07/29 00:05:28;;;;;;;2.00;1.50;;;19.20;99.90;;;;;;4826674;29;20249;-89
2023/07/29 00:07:54;;;;;;;1.40;1.30;;;19.20;99.90;;;;;;4796095;29;20186;-89
2023/07/29 00:10:20;;;;;;;1.70;1.60;;;19.10;99.90;;;;;;4826971;29;20250;-89
2023/07/29 00:12:45;;;;;;;2.00;1.30;;;19.20;99.90;;;;;;4811296;29;20647;-89
2023/07/29 00:15:11;;;;;;;2.60;1.60;;;19.10;99.90;;;;;;4826897;29;20198;-89
2023/07/29 00:17:37;;;;;;;1.70;1.57;;;19.10;99.90;;;;;;4810646;29;20196;-89
2023/07/29 00:20:03;;;;;;;2.10;1.30;;;19.10;99.90;;;;;;4826740;29;20656;-89
2023/07/29 00:22:28;;;;;;;1.73;1.40;;;19.10;99.90;;;;;;4826672;29;20673;-89
2023/07/29 00:24:55;;;;;;;4.20;1.50;;;19.10;99.90;;;;;;4815148;29;20506;-89
2023/07/29 00:27:21;;;;;;;1.73;1.53;;;19.10;99.90;;;;;;4808704;29;20277;-89
2023/07/29 00:29:47;;;;;;;4.20;1.40;;;19.10;99.90;;;;;;4793087;29;20778;-89
2023/07/29 00:32:12;;;;;;;1.70;1.60;;;19.10;99.90;;;;;;4808711;29;20419;-89
2023/07/29 00:34:38;;;;;;;1.93;1.50;;;19.10;99.90;;;;;;4808560;29;20398;-88
2023/07/29 00:37:05;;;;;;;6.47;1.80;;;19.10;99.90;;;;;;4792610;29;20347;-88
2023/07/29 00:39:31;;;;;;;1.50;1.30;;;19.10;99.90;;;;;;4792323;29;20194;-88
2023/07/29 00:41:57;;;;;;;1.70;1.60;;;19.10;99.90;;;;;;4792675;29;20663;-89
2023/07/29 00:44:23;;;;;;;1.30;1.20;;;19.10;99.90;;;;;;4777302;29;20952;-88
2023/07/29 00:46:50;;;;;;;2.60;1.27;;;19.10;99.90;;;;;;4792608;29;20236;-88
2023/07/29 00:49:16;;;;;;;1.70;1.60;;;19.10;99.90;;;;;;4808254;29;20332;-88
2023/07/29 00:51:41;;;;;;;1.60;1.50;;;19.10;99.90;;;;;;4808717;29;20469;-88
2023/07/29 00:54:07;;;;;;;4.23;1.87;;;19.10;99.90;;;;;;4792404;29;20196;-88
2023/07/29 00:56:33;;;;;;;2.13;1.40;;;19.10;99.90;;;;;;4808266;29;20202;-88
2023/07/29 00:59:01;;;;;;;1.50;1.40;;;19.10;99.90;;;;;;4792099;29;20222;-88
2023/07/29 01:01:30;;;;;;;3.90;1.60;;;19.10;99.90;;;;;;4807957;29;20228;-89
2023/07/29 01:03:56;;;;;;;1.93;1.33;;;19.10;99.90;;;;;;4808021;29;20447;-88
2023/07/29 01:06:51;;;;;;;2.20;1.67;;;19.10;99.90;;;;;;4791687;29;20479;-89
2023/07/29 01:09:41;;;;;;;1.30;1.20;;;19.10;99.90;;;;;;4806985;29;20425;-89
2023/07/29 01:12:37;;;;;;;2.80;1.37;;;19.20;99.90;;;;;;4807992;29;20398;-89
2023/07/29 01:15:18;;;;;;;7.87;2.20;;;19.20;99.90;;;;;;4807728;29;20803;-89
2023/07/29 01:17:49;;;;;;;4.07;1.50;;;19.20;99.90;;;;;;4791932;29;20573;-88
2023/07/29 01:20:17;;;;;;;3.57;1.70;;;19.20;99.90;;;;;;4791637;29;20418;-89
2023/07/29 01:22:49;;;;;;;2.80;1.50;;;19.10;99.90;;;;;;4807870;29;20795;-88
2023/07/29 01:25:15;;;;;;;2.17;1.97;;;19.10;99.90;;;;;;4803282;29;20542;-88
2023/07/29 01:27:43;;;;;;;2.20;2.00;;;19.10;99.90;;;;;;4806751;29;20435;-88
2023/07/29 01:30:09;;;;;;;4.40;1.77;;;19.10;99.90;;;;;;4806867;29;20434;-89
2023/07/29 01:32:55;;;;;;;2.07;1.87;;;19.00;99.90;;;;;;4806517;29;20464;-89
2023/07/29 01:35:30;;;;;;;1.93;1.83;;;19.00;99.90;;;;;;4807766;29;20927;-91
2023/07/29 01:38:01;;;;;;;1.90;1.80;;;19.00;99.90;;;;;;4807525;29;20394;-91
2023/07/29 01:40:28;;;;;;;2.13;1.93;;;18.90;99.90;;;;;;4808373;29;20424;-90
2023/07/29 01:42:53;;;;;;;2.67;2.40;;;18.90;99.90;;;;;;4807747;29;20423;-92
2023/07/29 01:45:23;;;;;;;2.87;2.53;;;18.90;99.90;;;;;;4807562;29;20464;-91
2023/07/29 01:47:49;;;;;;;2.10;1.90;;;18.80;99.90;;;;;;4808405;29;20179;-91
2023/07/29 01:50:17;;;;;;;3.33;3.03;;;18.80;99.90;;;;;;4808700;29;20771;-91
2023/07/29 01:52:42;;;;;;;4.53;2.43;;;18.70;99.90;;;;;;4808685;29;20186;-91
2023/07/29 01:55:08;;;;;;;3.07;2.20;;;18.70;99.90;;;;;;4807723;29;20442;-91
2023/07/29 01:57:34;;;;;;;2.40;2.20;;;18.70;99.90;;;;;;4791412;29;20247;-91
2023/07/29 02:00:00;;;;;;;3.80;2.40;;;18.60;99.90;;;;;;4807479;29;20202;-91
2023/07/29 02:02:25;;;;;;;4.70;2.83;;;18.60;99.90;;;;;;4807212;29;20204;-92
2023/07/29 02:04:52;;;;;;;3.53;2.70;;;18.60;99.90;;;;;;4806978;29;20503;-91
2023/07/29 02:07:19;;;;;;;3.20;3.00;;;18.60;99.90;;;;;;4806193;29;20190;-91
2023/07/29 02:09:45;;;;;;;2.67;2.43;;;18.60;99.90;;;;;;4806063;29;20428;-91
2023/07/29 02:12:10;;;;;;;3.50;3.00;;;18.60;99.90;;;;;;4806164;29;20407;-91
2023/07/29 02:14:36;;;;;;;3.43;2.90;;;18.60;99.90;;;;;;4806810;29;20197;-91
2023/07/29 02:17:02;;;;;;;3.30;3.00;;;18.60;99.90;;;;;;4791045;29;20197;-91
2023/07/29 02:19:27;;;;;;;2.90;2.70;;;18.60;99.90;;;;;;4806887;29;20182;-92
2023/07/29 02:21:53;;;;;;;3.07;2.77;;;18.60;99.90;;;;;;4806083;29;20542;-91
2023/07/29 02:24:19;;;;;;;5.37;2.97;;;18.50;99.90;;;;;;4806423;29;20651;-92
2023/07/29 02:26:44;;;;;;;4.80;3.30;;;18.50;99.90;;;;;;4805758;29;20225;-92
2023/07/29 02:29:10;;;;;;;3.30;3.00;;;18.60;99.90;;;;;;4806375;29;20193;-92
2023/07/29 02:31:37;;;;;;;3.20;2.67;;;18.50;99.90;;;;;;4805926;29;20536;-92
2023/07/29 02:34:03;;;;;;;3.03;2.83;;;18.50;99.90;;;;;;4790303;29;20190;-92
2023/07/29 02:36:29;;;;;;;3.17;2.70;;;18.50;99.90;;;;;;4806041;29;20412;-91
2023/07/29 02:38:54;;;;;;;4.00;2.70;;;18.50;99.90;;;;;;4806053;29;20411;-92
2023/07/29 02:41:20;;;;;;;5.00;2.77;;;18.50;99.90;;;;;;4806133;29;20182;-92
2023/07/29 02:43:50;;;;;;;5.03;3.43;;;18.40;99.90;;;;;;4789613;29;20601;-92
2023/07/29 02:46:15;;;;;;;2.77;2.10;;;18.50;99.90;;;;;;4789816;29;20309;-92
2023/07/29 02:48:42;;;;;;;2.80;2.60;;;18.50;99.90;;;;;;4789746;29;20505;-92
2023/07/29 02:51:08;;;;;;;5.93;2.50;;;18.40;99.90;;;;;;4806262;29;20186;-92
2023/07/29 02:53:36;;;;;;;3.10;2.80;;;18.40;99.90;;;;;;4789421;29;20534;-93
2023/07/29 02:56:02;;;;;;;3.90;2.60;;;18.40;99.90;;;;;;4775176;29;20194;-93
2023/07/29 02:58:28;;;;;;;5.03;3.27;;;18.50;99.90;;;;;;4805781;29;20387;-93
2023/07/29 03:00:59;;;;;;;3.07;2.47;;;18.40;99.90;;;;;;4805698;29;20418;-93
2023/07/29 03:03:25;;;;;;;4.47;2.60;;;18.40;99.90;;;;;;4790415;29;20214;-93
2023/07/29 03:06:00;;;;;;;5.73;2.77;;;18.40;99.90;;;;;;4789872;29;20892;-93
2023/07/29 03:08:26;;;;;;;2.83;2.63;;;18.40;99.90;;;;;;4789607;29;20216;-93
2023/07/29 03:10:51;;;;;;;5.33;1.93;;;18.40;99.90;;;;;;4805925;29;20459;-93
2023/07/29 03:13:17;;;;;;;3.50;2.97;;;18.40;99.90;;;;;;4805742;29;20631;-93
2023/07/29 03:15:42;;;;;;;6.90;2.97;;;18.40;99.90;;;;;;4789794;29;20612;-93
2023/07/29 03:18:08;;;;;;;2.70;2.47;;;18.30;99.90;;;;;;4789778;29;20190;-93
2023/07/29 03:20:33;;;;;;;2.60;2.40;;;18.30;99.90;;;;;;4789223;29;20640;-93
2023/07/29 03:22:59;;;;;;;3.80;2.33;;;18.30;99.90;;;;;;4789983;29;20194;-93
2023/07/29 03:25:25;;;;;;;4.93;3.20;;;18.30;99.90;;;;;;4754477;29;1099137;-93
2023/07/29 03:27:50;;;;;;;3.43;2.47;;;18.40;99.90;;;;;;4810212;29;20223;-93
2023/07/29 03:30:20;;;;;;;4.10;2.30;;;18.30;99.90;;;;;;4808748;29;20239;-92
2023/07/29 03:32:45;;;;;;;3.07;2.67;;;18.30;99.90;;;;;;4809894;29;20178;-92
2023/07/29 03:35:11;;;;;;;2.97;2.20;;;18.30;99.90;;;;;;4808840;29;20860;-92
2023/07/29 03:37:37;;;;;;;3.40;3.10;;;18.20;99.90;;;;;;4808416;29;20186;-93
2023/07/29 03:40:03;;;;;;;3.73;2.50;;;18.20;99.90;;;;;;4808149;29;20197;-92
2023/07/29 03:42:28;;;;;;;5.90;3.27;;;18.10;99.90;;;;;;4809840;29;20273;-92
2023/07/29 03:44:54;;;;;;;2.80;2.60;;;18.10;99.90;;;;;;4809638;29;20471;-92
2023/07/29 03:47:19;;;;;;;4.03;3.23;;;18.10;99.90;;;;;;4808652;29;20285;-92
2023/07/29 03:49:45;;;;;;;3.10;2.80;;;18.10;99.90;;;;;;4808353;29;20194;-92
2023/07/29 03:52:11;;;;;;;3.83;3.40;;;18.10;99.90;;;;;;4809621;29;20182;-91
2023/07/29 03:54:36;;;;;;;3.40;3.10;;;18.10;99.90;;;;;;4809412;29;20288;-92
2023/07/29 03:57:02;;;;;;;3.60;3.30;;;18.00;99.90;;;;;;4808621;29;20756;-92
2023/07/29 03:59:28;;;;;;;3.60;3.30;;;18.00;99.90;;;;;;4809669;29;20182;-91
2023/07/29 04:01:53;;;;;;;3.83;3.53;;;18.00;99.90;;;;;;4809454;29;20209;-92
2023/07/29 04:04:19;;;;;;;4.90;3.90;;;18.00;99.90;;;;;;4809772;29;20265;-92
2023/07/29 04:06:47;;;;;;;3.73;3.43;;;17.90;99.90;;;;;;4808365;29;20727;-92
2023/07/29 04:09:13;;;;;;;5.67;3.87;;;17.90;99.90;;;;;;4809676;29;20190;-92
2023/07/29 04:11:38;;;;;;;8.23;3.97;;;17.90;99.90;;;;;;4808285;29;20431;-92
2023/07/29 04:14:04;;;;;;;4.17;3.60;;;17.90;99.90;;;;;;4808136;29;20406;-92
2023/07/29 04:16:29;;;;;;;4.70;4.37;;;17.80;99.90;;;;;;4793225;29;20190;-92
2023/07/29 04:18:55;;;;;;;4.10;3.70;;;17.80;99.90;;;;;;4808395;29;20186;-92
2023/07/29 04:21:21;;;;;;;4.30;3.90;;;17.70;99.90;;;;;;4808527;29;20198;-92
2023/07/29 04:23:46;;;;;;;3.90;3.60;;;17.80;99.90;;;;;;4809006;29;20226;-92
2023/07/29 04:26:12;;;;;;;4.67;4.07;;;17.80;99.90;;;;;;4809585;29;20246;-92
2023/07/29 04:28:38;;;;;;;5.47;4.97;;;17.70;99.90;;;;;;4809074;29;20223;-92
2023/07/29 04:31:03;;;;;;;4.60;4.17;;;17.70;99.90;;;;;;4809607;29;20174;-92
2023/07/29 04:33:30;;;;;;;5.40;4.77;;;17.80;99.90;;;;;;4792699;29;20194;-92
2023/07/29 04:35:56;;;;;;;7.93;5.40;;;17.70;99.90;;;;;;4792883;29;20201;-92
2023/07/29 04:38:22;;;;;;;6.63;5.47;;;17.70;99.90;;;;;;4792597;29;20789;-92
2023/07/29 04:40:53;;;;;;;8.20;5.00;;;17.80;99.90;;;;;;4809185;29;20420;-92
2023/07/29 04:43:18;;;;;;;8.43;5.00;;;17.80;99.90;;;;;;4793740;29;20273;-92
2023/07/29 04:45:44;;;;;;;6.50;5.40;;;17.80;99.90;;;;;;4792733;29;20570;-92
2023/07/29 04:48:10;;;;;;;8.97;5.60;;;17.80;99.90;;;;;;4809129;29;20647;-92
2023/07/29 04:50:35;;;;;;;8.33;5.53;;;17.80;99.90;;;;;;4809053;29;20427;-92
2023/07/29 04:53:01;;;;;;;5.73;5.23;;;17.80;99.90;;;;;;4792740;29;20228;-92
2023/07/29 04:55:29;;;;;;;7.50;5.37;;;17.80;99.90;;;;;;4792756;29;20663;-92
2023/07/29 04:57:54;;;;;;;8.73;5.30;;;17.80;99.90;;;;;;4809288;29;20265;-92
2023/07/29 05:00:20;;;;;;;6.20;5.60;;;17.80;99.90;;;;;;4808578;29;20520;-92
2023/07/29 05:02:46;;;;;;;7.50;5.20;;;17.80;99.90;;;;;;4792290;29;20199;-92
2023/07/29 05:05:11;;;;;;;9.60;5.60;;;17.70;99.90;;;;;;4792260;29;20668;-92
2023/07/29 05:07:37;;;;;;;10.03;5.20;;;17.80;99.90;;;;;;4777075;29;20204;-93
2023/07/29 05:10:03;;;;;;;6.27;4.70;;;17.70;99.90;;;;;;4808672;29;20179;-92
2023/07/29 05:12:29;;;;;;;6.33;5.03;;;17.80;99.90;;;;;;4792402;29;20660;-92
2023/07/29 05:14:55;;;;;;;7.00;4.50;;;17.80;99.90;;;;;;4792188;29;20605;-92
2023/07/29 05:17:21;;;;;;;6.33;5.63;;;17.70;99.90;;;;;;4792351;29;20444;-93
2023/07/29 05:19:49;;;;;;;8.40;4.90;;;17.80;99.90;;;;;;4776898;29;20678;-92
2023/07/29 05:22:15;;;;;;;9.20;5.10;;;17.80;99.90;;;;;;4807887;29;20953;-91
2023/07/29 05:24:41;;;;;;;6.10;4.67;;;17.90;99.90;;;;;;4801853;29;20599;-92
2023/07/29 05:27:08;;;;;;;7.03;4.97;;;17.90;99.90;;;;;;4809818;29;20208;-92
2023/07/29 05:29:34;;;;;;;5.67;5.03;;;18.00;99.90;;;;;;4826146;29;20201;-92
2023/07/29 05:31:59;;;;;;;8.03;4.20;;;17.90;99.90;;;;;;4826126;29;20454;-92
2023/07/29 05:34:25;;;;;;;11.43;5.47;;;17.90;99.90;;;;;;4826006;29;20213;-92
2023/07/29 05:36:50;;;;;;;6.10;5.40;;;17.90;99.90;;;;;;4809363;29;20558;-91
2023/07/29 05:39:16;;;;;;;8.00;5.07;;;18.00;99.90;;;;;;4810110;29;20189;-92
2023/07/29 05:41:42;;;;;;;7.93;5.33;;;18.00;99.90;;;;;;4809557;29;20177;-92
2023/07/29 05:44:07;;;;;;;8.80;5.40;;;18.00;99.90;;;;;;4809680;29;20198;-92
2023/07/29 05:46:33;;;;;;;7.53;5.30;;;18.00;99.90;;;;;;4808503;29;20308;-94
2023/07/29 05:49:01;;;;;;;9.33;4.70;;;18.00;99.90;;;;;;4810008;29;20202;-92
2023/07/29 05:51:28;;;;;;;7.77;5.10;;;18.00;99.90;;;;;;4825911;29;20598;-92
2023/07/29 05:53:56;;;;;;;6.80;5.30;;;18.00;99.90;;;;;;4825644;29;20495;-92
2023/07/29 05:56:22;;;;;;;7.73;5.67;;;18.00;99.90;;;;;;4827027;29;20434;-92
2023/07/29 05:58:47;;;;;;;9.90;5.63;;;18.00;99.90;;;;;;4825869;29;20419;-92
2023/07/29 06:01:13;;;;;;;6.20;5.60;;;18.00;99.90;;;;;;4809454;29;20186;-92
2023/07/29 06:03:39;;;;;;;5.80;5.20;;;18.00;99.90;;;;;;4825481;29;20174;-92
2023/07/29 06:06:04;;;;;;;17.40;5.07;;;18.10;99.90;;;;;;4825963;29;20210;-92
2023/07/29 06:08:32;;;;;;;7.00;5.40;;;18.10;99.90;;;;;;4809301;29;20194;-91
2023/07/29 06:10:58;;;;;;;5.93;5.43;;;18.10;99.90;;;;;;4825215;29;20185;-92
2023/07/29 06:13:24;;;;;;;7.80;5.10;;;18.10;99.90;;;;;;4825526;29;20431;-91
2023/07/29 06:15:50;;;;;;;5.80;5.30;;;18.10;99.90;;;;;;4825488;29;20186;-92
2023/07/29 06:18:18;;;;;;;10.77;5.30;;;18.10;99.90;;;;;;4809312;29;20185;-92
2023/07/29 06:20:46;;;;;;;7.60;5.70;;;18.20;99.90;;;;;;4808938;29;20434;-91
2023/07/29 06:23:12;;;;;;;10.33;6.10;;;18.20;99.90;;;;;;4809229;29;20438;-89
2023/07/29 06:25:40;;;;;;;6.07;5.40;;;18.20;99.90;;;;;;4807400;29;20491;-89
2023/07/29 06:28:05;;;;;;;10.17;5.40;;;18.20;99.90;;;;;;4791180;29;20285;-88
2023/07/29 06:30:31;;;;;;;5.33;4.30;;;18.20;99.90;;;;;;4790847;29;20522;-89
2023/07/29 06:32:57;;;;;;;9.23;4.37;;;18.20;99.90;;;;;;4806850;29;20193;-89
2023/07/29 06:35:23;;;;;;;5.80;3.87;;;18.20;99.90;;;;;;4807513;29;20563;-90
2023/07/29 06:37:49;;;;;;;5.20;4.57;;;18.30;99.90;;;;;;4807186;29;20190;-89
2023/07/29 06:40:15;;;;;;;7.10;4.10;;;18.30;99.90;;;;;;4807220;29;20420;-88
2023/07/29 06:42:40;;;;;;;5.37;4.67;;;18.40;99.90;;;;;;4790624;29;20428;-89
2023/07/29 06:45:07;;;;;;;10.00;4.10;;;18.40;99.90;;;;;;4807198;29;20321;-88
2023/07/29 06:47:32;;;;;;;7.20;3.90;;;18.40;99.90;;;;;;4807384;29;20182;-89
2023/07/29 06:49:58;;;;;;;4.80;3.60;;;18.50;99.90;;;;;;4807134;29;20757;-89
2023/07/29 06:52:23;;;;;;;5.57;3.90;;;18.60;99.90;;;;;;4806965;29;20269;-88
2023/07/29 06:54:49;;;;;;;4.80;3.43;;;18.70;99.90;;;;;;4806968;29;20697;-88
2023/07/29 06:57:15;;;;;;;5.30;3.50;;;18.80;99.90;;;;;;4807221;29;20532;-88
2023/07/29 06:59:40;;;;;;;5.63;3.47;;;18.90;99.90;;;;;;4791064;29;20190;-88
2023/07/29 07:02:07;;;;;;;3.60;3.30;;;18.90;99.90;;;;;;4807006;29;20194;-88
2023/07/29 07:04:32;;;;;;;4.93;3.53;;;19.10;99.90;;;;;;4791217;29;20190;-88
2023/07/29 07:06:58;;;;;;;5.20;3.57;;;19.10;99.90;;;;;;4790774;29;21032;-87
2023/07/29 07:09:24;;;;;;;5.00;3.40;;;19.10;99.90;;;;;;4775796;29;20631;-88
2023/07/29 07:11:52;;;;;;;5.37;3.80;;;19.00;99.90;;;;;;4806669;29;20484;-88
2023/07/29 07:14:18;;;;;;;5.17;3.63;;;19.10;99.90;;;;;;4807018;29;20190;-88
2023/07/29 07:16:44;;;;;;;4.67;3.60;;;19.00;99.90;;;;;;4806967;29;20891;-91
2023/07/29 07:19:10;;;;;;;6.20;3.50;;;18.80;99.90;;;;;;4807573;29;20412;-90
2023/07/29 07:21:36;;;;;;;5.70;3.20;;;18.80;99.90;;;;;;4807287;29;20182;-88
2023/07/29 07:24:01;;;;;;;7.47;3.30;;;18.90;99.90;;;;;;4795880;29;20449;-89
2023/07/29 07:26:27;;;;;;;3.53;3.23;;;19.00;99.90;;;;;;4808461;29;20228;-86
2023/07/29 07:28:53;;;;;;;4.10;3.40;;;19.20;99.90;;;;;;4824578;29;20552;-88
2023/07/29 07:31:18;;;;;;;5.53;3.30;;;19.30;99.90;;;;;;4824946;29;20181;-87
2023/07/29 07:33:44;;;;;;;4.67;3.00;;;19.30;99.90;;;;;;4824474;29;20185;-89
2023/07/29 07:36:10;;;;;;;3.30;2.73;;;19.20;99.90;;;;;;4809071;29;20273;-89
2023/07/29 07:38:36;;;;;;;6.03;2.50;;;19.20;99.90;;;;;;4825342;29;20398;-88
2023/07/29 07:41:02;;;;;;;7.37;2.60;;;19.20;99.90;;;;;;4824941;29;20190;-88
2023/07/29 07:43:30;;;;;;;4.40;2.30;;;19.30;99.90;;;;;;4825435;29;20426;-87
2023/07/29 07:46:00;;;;;;;2.77;2.57;;;19.40;99.90;;;;;;4824750;29;20236;-88
2023/07/29 07:48:27;;;;;;;2.50;2.20;;;19.50;99.90;;;;;;4825389;29;20426;-87
2023/07/29 07:50:53;;;;;;;4.70;2.33;;;19.60;99.90;;;;;;4824897;29;20413;-89
2023/07/29 07:53:19;;;;;;;2.40;1.90;;;19.40;99.90;;;;;;4824607;29;20510;-88
2023/07/29 07:55:45;;;;;;;6.57;2.73;;;19.50;99.90;;;;;;4824700;29;20197;-88
2023/07/29 07:58:11;;;;;;;3.50;1.50;;;19.50;99.90;;;;;;4808321;29;20405;-87
2023/07/29 08:00:36;;;;;;;4.00;2.20;;;19.50;99.90;;;;;;4824870;29;20242;-88
2023/07/29 08:03:02;;;;;;;2.63;1.73;;;19.50;99.90;;;;;;4829671;29;20673;-87
2023/07/29 08:05:27;;;;;;;2.23;1.60;;;19.50;99.90;;;;;;4810602;29;20228;-86
2023/07/29 08:07:53;;;;;;;3.73;1.40;;;19.70;99.90;;;;;;4826983;29;20196;-86
2023/07/29 08:10:19;;;;;;;2.90;1.40;;;19.90;99.90;;;;;;4826908;29;20272;-87
2023/07/29 08:12:44;;;;;;;2.37;1.10;;;20.20;99.90;;;;;;4811735;29;20196;-88
2023/07/29 08:15:10;;;;;;;1.30;1.20;;;20.30;99.90;;;;;;4828055;29;20201;-87
2023/07/29 08:17:36;;;;;;;2.00;1.80;;;20.30;99.90;;;;;;4811924;29;20197;-87
2023/07/29 08:20:01;;;;;;;2.90;1.73;;;20.20;99.90;;;;;;4811498;29;20258;-89
2023/07/29 08:22:27;;;;;;;2.70;1.10;;;20.40;99.90;;;;;;4827797;29;20264;-87
2023/07/29 08:24:54;;;;;;;1.67;1.30;;;20.60;99.90;;;;;;4815235;29;20349;-87
2023/07/29 08:27:20;;;;;;;2.27;1.50;;;20.60;99.90;;;;;;4809770;29;20198;-87
2023/07/29 08:29:46;;;;;;;1.30;1.20;;;20.50;99.90;;;;;;4809271;29;20902;-89
2023/07/29 08:32:14;;;;;;;1.00;0.90;;;20.30;99.90;;;;;;4778919;29;20212;-88
2023/07/29 08:34:39;;;;;;;2.17;1.40;;;20.30;99.90;;;;;;4810970;29;20194;-87
2023/07/29 08:37:05;;;;;;;2.93;1.43;;;20.30;99.90;;;;;;4794518;29;20419;-87
2023/07/29 08:39:31;;;;;;;3.53;1.33;;;20.40;99.90;;;;;;4812385;29;20198;-87
2023/07/29 08:42:04;;;;;;;1.40;1.30;;;20.30;99.90;;;;;;4812391;29;20780;-87
2023/07/29 08:44:43;;;;;;;2.60;1.13;;;20.40;99.90;;;;;;4809343;29;20209;-87
2023/07/29 08:47:09;;;;;;;3.50;1.60;;;20.40;99.90;;;;;;4809775;29;20435;-87
2023/07/29 08:49:37;;;;;;;4.80;1.30;;;20.40;99.90;;;;;;4809456;29;20476;-88
2023/07/29 08:52:04;;;;;;;2.10;1.23;;;20.50;99.90;;;;;;4808918;29;20391;-87
2023/07/29 08:54:29;;;;;;;2.10;1.20;;;20.50;99.90;;;;;;4809073;29;20755;-87
2023/07/29 08:56:55;;;;;;;5.80;1.60;;;20.50;99.90;;;;;;4808740;29;20413;-88
2023/07/29 08:59:21;;;;;;;2.90;1.27;;;20.50;99.90;;;;;;4809146;29;20183;-87
2023/07/29 09:01:47;;;;;;;1.80;1.33;;;20.40;99.90;;;;;;4792283;29;20938;-88
2023/07/29 09:04:13;;;;;;;3.47;1.13;;;20.30;99.90;;;;;;4793011;29;20202;-88
2023/07/29 09:06:39;;;;;;;2.00;1.30;;;20.50;99.90;;;;;;4792764;29;20487;-88
2023/07/29 09:09:07;;;;;;;1.23;1.07;;;20.50;99.90;;;;;;4808535;29;20202;-88
2023/07/29 09:11:33;;;;;;;2.20;1.13;;;20.60;99.90;;;;;;4808673;29;20459;-88
2023/07/29 09:13:59;;;;;;;2.83;1.27;;;20.70;99.90;;;;;;4808855;29;20427;-88
2023/07/29 09:16:26;;;;;;;1.80;1.23;;;20.90;99.90;;;;;;4809011;29;20960;-87
2023/07/29 09:18:52;;;;;;;1.80;1.70;;;20.80;99.90;;;;;;4808533;29;20201;-88
2023/07/29 09:21:22;;;;;;;2.70;1.40;;;20.90;99.90;;;;;;4808207;29;20779;-89
2023/07/29 09:23:50;;;;;;;2.60;1.43;;;20.90;99.90;;;;;;4808695;29;20835;-89
2023/07/29 09:26:25;;;;;;;4.30;1.40;;;20.90;99.90;;;;;;4808405;29;20483;-89
2023/07/29 09:28:53;;;;;;;1.90;1.30;;;21.00;99.90;;;;;;4808298;29;20918;-89
2023/07/29 09:31:21;;;;;;;4.47;1.27;;;21.20;99.90;;;;;;4792180;29;20467;-89
2023/07/29 09:33:46;;;;;;;2.80;1.30;;;21.40;99.90;;;;;;4791554;29;20605;-89
2023/07/29 09:36:12;;;;;;;1.53;1.43;;;21.50;99.90;;;;;;4792270;29;20542;-89
2023/07/29 09:38:38;;;;;;;4.03;1.60;;;21.40;99.90;;;;;;4808818;29;20244;-89
2023/07/29 09:41:04;;;;;;;2.50;1.13;;;21.40;99.90;;;;;;4808054;29;20178;-89
2023/07/29 09:43:34;;;;;;;1.40;1.30;;;21.50;99.90;;;;;;4808950;29;20438;-89
2023/07/29 09:46:04;;;;;;;3.57;1.50;;;21.40;99.90;;;;;;4808453;29;20230;-89
2023/07/29 09:48:34;;;;;;;2.97;1.33;;;21.70;99.90;;;;;;4809056;29;20414;-89
2023/07/29 09:51:08;;;;;;;1.73;1.30;;;21.90;99.90;;;;;;4808012;29;20390;-90
2023/07/29 09:53:49;;;;;;;1.53;1.43;;;21.80;99.90;;;;;;4792107;29;20410;-88
2023/07/29 09:56:15;;;;;;;1.87;1.20;;;21.80;99.90;;;;;;4807743;29;20398;-89
2023/07/29 09:58:45;;;;;;;1.63;1.53;;;21.70;99.90;;;;;;4807464;29;20406;-89
2023/07/29 10:01:11;;;;;;;1.87;1.57;;;21.60;99.90;;;;;;4807903;29;20438;-89
2023/07/29 10:03:37;;;;;;;2.33;1.60;;;21.70;99.90;;;;;;4807896;29;20485;-89
2023/07/29 10:06:04;;;;;;;1.20;1.10;;;21.70;99.90;;;;;;4811670;29;20441;-89
2023/07/29 10:08:31;;;;;;;1.87;1.40;;;21.50;99.90;;;;;;4809367;29;20427;-89
2023/07/29 10:11:00;;;;;;;4.80;1.57;;;21.40;99.90;;;;;;4807645;29;20436;-89
2023/07/29 10:13:26;;;;;;;2.20;1.70;;;21.20;99.90;;;;;;4808071;29;20530;-89
2023/07/29 10:15:57;;;;;;;1.60;1.33;;;21.10;99.90;;;;;;4807920;29;20424;-90
2023/07/29 10:18:23;;;;;;;2.30;1.60;;;21.00;99.90;;;;;;4792174;29;20951;-90
2023/07/29 10:20:51;;;;;;;2.80;1.30;;;21.10;99.90;;;;;;4807816;29;20425;-91
2023/07/29 10:23:19;;;;;;;1.50;1.40;;;21.10;99.90;;;;;;4808416;29;20416;-92
2023/07/29 10:26:05;;;;;;;1.83;1.50;;;21.10;99.90;;;;;;4807960;29;20446;-91
2023/07/29 10:28:32;;;;;;;1.63;1.30;;;21.00;99.90;;;;;;4807413;29;20394;-91
2023/07/29 10:30:58;;;;;;;2.07;1.67;;;20.90;99.90;;;;;;4807971;29;20402;-91
2023/07/29 10:33:25;;;;;;;1.77;1.60;;;20.70;99.90;;;;;;4807420;29;20399;-91
2023/07/29 10:35:52;;;;;;;1.90;1.50;;;20.60;99.90;;;;;;4807515;29;20447;-91
2023/07/29 10:38:21;;;;;;;1.57;1.40;;;20.60;99.90;;;;;;4807876;29;20503;-90
2023/07/29 10:40:52;;;;;;;3.97;1.80;;;20.60;99.90;;;;;;4808049;29;20778;-90
2023/07/29 10:43:29;;;;;;;1.70;1.60;;;20.60;99.90;;;;;;4808531;29;20471;-92
2023/07/29 10:45:56;;;;;;;1.53;1.43;;;20.70;99.90;;;;;;4807989;29;20478;-93
2023/07/29 10:48:34;;;;;;;2.17;1.43;;;20.90;99.90;;;;;;4808573;29;20754;-93
2023/07/29 10:51:29;;;;;;;1.47;1.37;;;21.00;99.90;;;;;;4792236;29;20435;-92
2023/07/29 10:53:56;;;;;;;2.23;1.57;;;21.20;99.90;;;;;;4791921;29;20432;-92
2023/07/29 10:56:36;;;;;;;1.20;1.07;;;21.20;99.90;;;;;;4807795;29;20759;-93
2023/07/29 10:59:11;;;;;;;5.07;1.47;;;21.60;99.90;;;;;;4792054;29;20442;-92
2023/07/29 11:01:39;;;;;;;2.10;1.90;;;22.20;99.90;;;;;;4808064;29;20405;-91
2023/07/29 11:04:20;;;;;;;1.40;1.30;;;22.30;99.90;;;;;;4807237;29;20428;-90
2023/07/29 11:07:07;;;;;;;1.50;1.40;;;22.00;99.90;;;;;;4808963;29;20528;-92
2023/07/29 11:09:51;;;;;;;2.50;1.40;;;22.00;99.90;;;;;;4792381;29;20418;-91
2023/07/29 11:12:40;;;;;;;2.70;1.50;;;22.10;99.90;;;;;;4808382;29;20782;-93
2023/07/29 11:15:17;;;;;;;1.50;1.40;;;22.20;99.90;;;;;;4791926;29;20919;-90
2023/07/29 11:18:03;;;;;;;1.47;1.27;;;22.50;99.90;;;;;;4807889;29;20405;-92
2023/07/29 11:20:31;;;;;;;1.53;1.20;;;23.20;99.90;;;;;;4791158;29;20475;-92
2023/07/29 11:22:58;;;;;;;1.90;1.30;;;23.90;99.90;;;;;;4808010;29;20458;-91
2023/07/29 11:25:26;;;;;;;1.53;1.43;;;24.80;99.90;;;;;;4806470;29;20502;-93
2023/07/29 11:27:54;;;;;;;1.50;1.40;;;25.10;99.90;;;;;;4824636;29;20844;-92
2023/07/29 11:30:20;;;;;;;3.87;1.40;;;24.90;99.90;;;;;;4825026;29;20836;-91
2023/07/29 11:32:46;;;;;;;1.20;1.10;;;24.60;99.90;;;;;;4824859;29;20463;-90
2023/07/29 11:35:14;;;;;;;3.07;1.40;;;24.60;99.90;;;;;;4808270;29;20197;-91
2023/07/29 11:37:40;;;;;;;1.40;1.17;;;25.10;99.90;;;;;;4809895;29;20472;-90
2023/07/29 11:40:08;;;;;;;1.30;1.20;;;25.50;99.90;;;;;;4825220;29;20560;-90
2023/07/29 11:42:35;;;;;;;1.23;1.13;;;25.90;99.90;;;;;;4809485;29;20401;-92
2023/07/29 11:45:02;;;;;;;1.23;1.07;;;26.50;99.90;;;;;;4827243;29;20427;-91
2023/07/29 11:47:28;;;;;;;1.40;1.30;;;27.10;99.90;;;;;;4828451;29;20509;-93
2023/07/29 11:49:53;;;;;;;1.90;1.10;;;27.80;99.90;;;;;;4828505;29;20993;-91
2023/07/29 11:52:19;;;;;;;1.10;0.97;;;27.60;99.90;;;;;;4828747;29;20223;-92
2023/07/29 11:54:47;;;;;;;2.23;1.20;;;27.70;99.90;;;;;;4828943;29;20196;-92
2023/07/29 11:57:14;;;;;;;2.23;1.17;;;27.80;99.90;;;;;;4828176;29;20423;-92
2023/07/29 11:59:41;;;;;;;2.47;1.10;;;27.20;99.90;;;;;;4811717;29;20795;-90
2023/07/29 12:02:16;;;;;;;1.13;1.00;;;26.60;99.90;;;;;;4827740;29;20517;-93
2023/07/29 12:04:42;;;;;;;1.00;0.90;;;26.50;99.90;;;;;;4827798;29;20426;-92
2023/07/29 12:07:08;;;;;;;1.40;1.30;;;27.30;99.90;;;;;;4828772;29;20882;-92
2023/07/29 12:09:37;;;;;;;0.90;0.80;;;27.60;99.90;;;;;;4830949;29;20423;-90
2023/07/29 12:12:07;;;;;;;1.10;1.00;;;27.10;99.90;;;;;;4812280;29;20196;-90
2023/07/29 12:14:33;;;;;;;2.90;1.20;;;27.10;99.90;;;;;;4834493;29;20448;-91
2023/07/29 12:17:04;;;;;;;1.37;1.10;;;27.90;99.90;;;;;;4829374;29;20956;-91
2023/07/29 12:19:35;;;;;;;1.40;1.20;;;28.10;99.90;;;;;;4828379;29;20447;-92
2023/07/29 12:22:01;;;;;;;1.13;1.00;;;28.50;99.90;;;;;;4827854;29;20431;-93
2023/07/29 12:24:28;;;;;;;1.20;1.10;;;29.00;99.90;;;;;;4819077;29;20562;-93
2023/07/29 12:26:54;;;;;;;1.20;1.10;;;29.20;99.90;;;;;;4809291;29;20479;-93
2023/07/29 12:29:20;;;;;;;1.60;1.50;;;29.10;99.90;;;;;;4808921;29;20436;-93
2023/07/29 12:31:46;;;;;;;1.97;1.20;;;28.50;99.90;;;;;;4793389;29;20562;-93
2023/07/29 12:34:21;;;;;;;1.30;1.20;;;28.50;99.90;;;;;;4809343;29;20202;-92
2023/07/29 12:36:51;;;;;;;1.30;1.20;;;28.50;99.90;;;;;;4809794;29;20419;-93
2023/07/29 12:39:28;;;;;;;1.77;1.03;;;28.60;99.90;;;;;;4809123;29;20542;-94
2023/07/29 12:41:59;;;;;;;2.13;1.40;;;28.30;99.90;;;;;;4811578;29;20404;-93
2023/07/29 12:44:27;;;;;;;1.47;1.37;;;27.80;99.90;;;;;;4812172;29;20419;-93
2023/07/29 12:46:52;;;;;;;1.40;1.30;;;27.80;99.90;;;;;;4809295;29;20486;-92